sensor_id;sensor_type;location;lat;lon;timestamp;P1;durP1;ratioP1;P2;durP2;ratioP2
69795;SDS011;57073;45.650;9.612;2024-02-26T00:00:39;5.07;;;2.97;;
69795;SDS011;57073;45.650;9.612;2024-02-26T00:05:39;7.03;;;2.70;;
69795;SDS011;57073;45.650;9.612;2024-02-26T00:10:39;5.87;;;2.83;;
69795;SDS011;57073;45.650;9.612;2024-02-26T00:15:40;6.10;;;2.80;;
69795;SDS011;57073;45.650;9.612;2024-02-26T00:20:40;6.10;;;3.00;;
69795;SDS011;57073;45.650;9.612;2024-02-26T00:25:43;4.43;;;2.80;;
69795;SDS011;57073;45.650;9.612;2024-02-26T00:30:43;6.03;;;2.50;;
69795;SDS011;57073;45.650;9.612;2024-02-26T00:35:43;6.77;;;2.57;;
69795;SDS011;57073;45.650;9.612;2024-02-26T00:40:44;4.93;;;2.50;;
69795;SDS011;57073;45.650;9.612;2024-02-26T00:45:44;4.43;;;2.57;;
69795;SDS011;57073;45.650;9.612;2024-02-26T00:50:46;4.33;;;2.47;;
69795;SDS011;57073;45.650;9.612;2024-02-26T00:55:47;6.07;;;2.23;;
69795;SDS011;57073;45.650;9.612;2024-02-26T01:00:47;3.97;;;1.90;;
69795;SDS011;57073;45.650;9.612;2024-02-26T01:05:47;3.00;;;1.63;;
69795;SDS011;57073;45.650;9.612;2024-02-26T01:10:48;2.50;;;1.67;;
69795;SDS011;57073;45.650;9.612;2024-02-26T01:15:48;4.37;;;1.93;;
69795;SDS011;57073;45.650;9.612;2024-02-26T01:20:48;4.63;;;1.83;;
69795;SDS011;57073;45.650;9.612;2024-02-26T01:25:49;3.70;;;1.70;;
69795;SDS011;57073;45.650;9.612;2024-02-26T01:30:49;3.50;;;1.70;;
69795;SDS011;57073;45.650;9.612;2024-02-26T01:35:49;4.10;;;1.60;;
69795;SDS011;57073;45.650;9.612;2024-02-26T01:40:50;2.93;;;1.70;;
69795;SDS011;57073;45.650;9.612;2024-02-26T01:45:50;2.93;;;1.33;;
69795;SDS011;57073;45.650;9.612;2024-02-26T01:50:51;2.35;;;1.40;;
69795;SDS011;57073;45.650;9.612;2024-02-26T01:55:52;2.87;;;1.43;;
69795;SDS011;57073;45.650;9.612;2024-02-26T02:00:52;3.30;;;1.80;;
69795;SDS011;57073;45.650;9.612;2024-02-26T02:05:53;2.13;;;1.20;;
69795;SDS011;57073;45.650;9.612;2024-02-26T02:10:53;2.77;;;1.20;;
69795;SDS011;57073;45.650;9.612;2024-02-26T02:15:54;4.67;;;1.60;;
69795;SDS011;57073;45.650;9.612;2024-02-26T02:20:54;2.63;;;1.50;;
69795;SDS011;57073;45.650;9.612;2024-02-26T02:25:56;2.40;;;1.75;;
69795;SDS011;57073;45.650;9.612;2024-02-26T02:30:58;2.67;;;1.58;;
69795;SDS011;57073;45.650;9.612;2024-02-26T02:35:58;4.73;;;1.60;;
69795;SDS011;57073;45.650;9.612;2024-02-26T02:40:59;2.87;;;1.50;;
69795;SDS011;57073;45.650;9.612;2024-02-26T02:45:59;2.67;;;1.43;;
69795;SDS011;57073;45.650;9.612;2024-02-26T02:50:59;3.77;;;1.20;;
69795;SDS011;57073;45.650;9.612;2024-02-26T02:56:00;3.40;;;1.30;;
69795;SDS011;57073;45.650;9.612;2024-02-26T03:01:00;1.93;;;1.30;;
69795;SDS011;57073;45.650;9.612;2024-02-26T03:06:01;2.20;;;1.13;;
69795;SDS011;57073;45.650;9.612;2024-02-26T03:11:01;2.43;;;1.30;;
69795;SDS011;57073;45.650;9.612;2024-02-26T03:16:05;3.00;;;1.30;;
69795;SDS011;57073;45.650;9.612;2024-02-26T03:21:06;3.40;;;1.40;;
69795;SDS011;57073;45.650;9.612;2024-02-26T03:26:07;3.08;;;1.35;;
69795;SDS011;57073;45.650;9.612;2024-02-26T03:31:08;2.50;;;1.38;;
69795;SDS011;57073;45.650;9.612;2024-02-26T03:36:10;2.83;;;1.33;;
69795;SDS011;57073;45.650;9.612;2024-02-26T03:41:11;1.70;;;1.00;;
69795;SDS011;57073;45.650;9.612;2024-02-26T03:46:11;2.17;;;1.10;;
69795;SDS011;57073;45.650;9.612;2024-02-26T03:51:13;3.90;;;1.50;;
69795;SDS011;57073;45.650;9.612;2024-02-26T03:56:13;2.33;;;1.17;;
69795;SDS011;57073;45.650;9.612;2024-02-26T04:01:14;2.30;;;1.17;;
69795;SDS011;57073;45.650;9.612;2024-02-26T04:06:14;2.70;;;1.40;;
69795;SDS011;57073;45.650;9.612;2024-02-26T04:11:15;2.30;;;0.90;;
69795;SDS011;57073;45.650;9.612;2024-02-26T04:16:17;1.70;;;1.10;;
69795;SDS011;57073;45.650;9.612;2024-02-26T04:21:18;2.57;;;1.10;;
69795;SDS011;57073;45.650;9.612;2024-02-26T04:26:18;2.93;;;1.00;;
69795;SDS011;57073;45.650;9.612;2024-02-26T04:31:20;3.03;;;1.05;;
69795;SDS011;57073;45.650;9.612;2024-02-26T04:36:20;3.17;;;1.27;;
69795;SDS011;57073;45.650;9.612;2024-02-26T04:41:21;2.40;;;1.10;;
69795;SDS011;57073;45.650;9.612;2024-02-26T04:46:21;4.43;;;1.30;;
69795;SDS011;57073;45.650;9.612;2024-02-26T04:51:22;3.00;;;1.40;;
69795;SDS011;57073;45.650;9.612;2024-02-26T04:56:22;1.90;;;1.20;;
69795;SDS011;57073;45.650;9.612;2024-02-26T05:01:22;2.80;;;1.20;;
69795;SDS011;57073;45.650;9.612;2024-02-26T05:06:23;3.03;;;1.20;;
69795;SDS011;57073;45.650;9.612;2024-02-26T05:11:23;1.90;;;0.85;;
69795;SDS011;57073;45.650;9.612;2024-02-26T05:16:24;3.93;;;1.50;;
69795;SDS011;57073;45.650;9.612;2024-02-26T05:21:26;3.50;;;1.67;;
69795;SDS011;57073;45.650;9.612;2024-02-26T05:26:26;3.27;;;1.43;;
69795;SDS011;57073;45.650;9.612;2024-02-26T05:31:27;2.73;;;1.20;;
69795;SDS011;57073;45.650;9.612;2024-02-26T05:36:28;3.38;;;1.42;;
69795;SDS011;57073;45.650;9.612;2024-02-26T05:41:33;3.33;;;1.40;;
69795;SDS011;57073;45.650;9.612;2024-02-26T05:46:33;2.53;;;1.33;;
69795;SDS011;57073;45.650;9.612;2024-02-26T05:51:34;1.60;;;0.80;;
69795;SDS011;57073;45.650;9.612;2024-02-26T05:56:34;1.53;;;0.70;;
69795;SDS011;57073;45.650;9.612;2024-02-26T06:01:34;1.27;;;0.73;;
69795;SDS011;57073;45.650;9.612;2024-02-26T06:06:35;1.73;;;1.00;;
69795;SDS011;57073;45.650;9.612;2024-02-26T06:11:35;2.17;;;1.00;;
69795;SDS011;57073;45.650;9.612;2024-02-26T06:16:35;2.17;;;1.03;;
69795;SDS011;57073;45.650;9.612;2024-02-26T06:21:36;1.73;;;1.00;;
69795;SDS011;57073;45.650;9.612;2024-02-26T06:26:36;1.60;;;0.80;;
69795;SDS011;57073;45.650;9.612;2024-02-26T06:31:37;1.97;;;0.97;;
69795;SDS011;57073;45.650;9.612;2024-02-26T06:36:37;3.43;;;1.30;;
69795;SDS011;57073;45.650;9.612;2024-02-26T06:41:37;3.17;;;1.47;;
69795;SDS011;57073;45.650;9.612;2024-02-26T06:46:39;3.38;;;1.63;;
69795;SDS011;57073;45.650;9.612;2024-02-26T06:51:39;4.63;;;1.67;;
69795;SDS011;57073;45.650;9.612;2024-02-26T06:56:40;3.47;;;1.53;;
69795;SDS011;57073;45.650;9.612;2024-02-26T07:01:41;3.57;;;1.87;;
69795;SDS011;57073;45.650;9.612;2024-02-26T07:06:41;4.43;;;1.90;;
69795;SDS011;57073;45.650;9.612;2024-02-26T07:11:43;3.17;;;1.70;;
69795;SDS011;57073;45.650;9.612;2024-02-26T07:16:44;3.40;;;1.70;;
69795;SDS011;57073;45.650;9.612;2024-02-26T07:21:44;5.03;;;1.80;;
69795;SDS011;57073;45.650;9.612;2024-02-26T07:26:45;4.57;;;1.87;;
69795;SDS011;57073;45.650;9.612;2024-02-26T07:31:46;3.80;;;1.98;;
69795;SDS011;57073;45.650;9.612;2024-02-26T07:36:47;4.55;;;1.95;;
69795;SDS011;57073;45.650;9.612;2024-02-26T07:41:47;4.27;;;2.20;;
69795;SDS011;57073;45.650;9.612;2024-02-26T07:46:49;3.15;;;2.30;;
69795;SDS011;57073;45.650;9.612;2024-02-26T07:51:50;5.70;;;2.70;;
69795;SDS011;57073;45.650;9.612;2024-02-26T07:56:50;3.30;;;1.60;;
69795;SDS011;57073;45.650;9.612;2024-02-26T08:01:51;4.27;;;2.30;;
69795;SDS011;57073;45.650;9.612;2024-02-26T08:06:51;6.10;;;2.53;;
69795;SDS011;57073;45.650;9.612;2024-02-26T08:11:51;4.53;;;2.20;;
69795;SDS011;57073;45.650;9.612;2024-02-26T08:16:52;3.67;;;2.10;;
69795;SDS011;57073;45.650;9.612;2024-02-26T08:21:52;4.50;;;2.20;;
69795;SDS011;57073;45.650;9.612;2024-02-26T08:26:52;3.80;;;2.23;;
69795;SDS011;57073;45.650;9.612;2024-02-26T08:31:53;2.90;;;1.90;;
69795;SDS011;57073;45.650;9.612;2024-02-26T08:36:53;4.17;;;2.40;;
69795;SDS011;57073;45.650;9.612;2024-02-26T08:41:54;2.63;;;1.40;;
69795;SDS011;57073;45.650;9.612;2024-02-26T08:46:54;3.07;;;1.60;;
69795;SDS011;57073;45.650;9.612;2024-02-26T08:51:54;2.13;;;1.10;;
69795;SDS011;57073;45.650;9.612;2024-02-26T08:56:55;2.30;;;1.10;;
69795;SDS011;57073;45.650;9.612;2024-02-26T09:01:55;2.13;;;1.23;;
69795;SDS011;57073;45.650;9.612;2024-02-26T09:06:56;3.50;;;1.40;;
69795;SDS011;57073;45.650;9.612;2024-02-26T09:11:56;3.97;;;1.80;;
69795;SDS011;57073;45.650;9.612;2024-02-26T09:16:57;4.22;;;2.13;;
69795;SDS011;57073;45.650;9.612;2024-02-26T09:21:57;3.47;;;2.00;;
69795;SDS011;57073;45.650;9.612;2024-02-26T09:26:58;2.97;;;1.70;;
69795;SDS011;57073;45.650;9.612;2024-02-26T09:31:58;3.53;;;1.90;;
69795;SDS011;57073;45.650;9.612;2024-02-26T09:36:59;2.27;;;1.80;;
69795;SDS011;57073;45.650;9.612;2024-02-26T09:42:01;3.03;;;1.80;;
69795;SDS011;57073;45.650;9.612;2024-02-26T09:47:04;2.70;;;1.53;;
69795;SDS011;57073;45.650;9.612;2024-02-26T09:52:07;2.97;;;1.50;;
69795;SDS011;57073;45.650;9.612;2024-02-26T09:57:09;3.15;;;1.80;;
69795;SDS011;57073;45.650;9.612;2024-02-26T10:02:15;4.73;;;2.30;;
69795;SDS011;57073;45.650;9.612;2024-02-26T10:07:19;5.88;;;2.65;;
69795;SDS011;57073;45.650;9.612;2024-02-26T10:12:20;7.65;;;2.45;;
69795;SDS011;57073;45.650;9.612;2024-02-26T10:17:22;8.05;;;2.22;;
69795;SDS011;57073;45.650;9.612;2024-02-26T10:22:22;3.43;;;2.27;;
69795;SDS011;57073;45.650;9.612;2024-02-26T10:27:23;4.97;;;2.30;;
69795;SDS011;57073;45.650;9.612;2024-02-26T10:32:23;4.53;;;2.77;;
69795;SDS011;57073;45.650;9.612;2024-02-26T10:37:24;7.13;;;2.75;;
69795;SDS011;57073;45.650;9.612;2024-02-26T10:42:28;3.73;;;2.40;;
69795;SDS011;57073;45.650;9.612;2024-02-26T10:47:29;4.65;;;2.45;;
69795;SDS011;57073;45.650;9.612;2024-02-26T10:52:33;3.37;;;2.00;;
69795;SDS011;57073;45.650;9.612;2024-02-26T10:57:36;3.80;;;2.72;;
69795;SDS011;57073;45.650;9.612;2024-02-26T11:02:40;7.18;;;3.20;;
69795;SDS011;57073;45.650;9.612;2024-02-26T11:07:41;5.03;;;3.20;;
69795;SDS011;57073;45.650;9.612;2024-02-26T11:12:42;6.65;;;3.78;;
69795;SDS011;57073;45.650;9.612;2024-02-26T11:17:43;7.13;;;3.77;;
69795;SDS011;57073;45.650;9.612;2024-02-26T11:22:44;6.78;;;4.35;;
69795;SDS011;57073;45.650;9.612;2024-02-26T11:27:46;5.87;;;3.83;;
69795;SDS011;57073;45.650;9.612;2024-02-26T11:32:50;4.85;;;3.42;;
69795;SDS011;57073;45.650;9.612;2024-02-26T11:37:55;5.77;;;3.23;;
69795;SDS011;57073;45.650;9.612;2024-02-26T11:42:56;7.07;;;3.88;;
69795;SDS011;57073;45.650;9.612;2024-02-26T11:47:56;4.93;;;2.60;;
69795;SDS011;57073;45.650;9.612;2024-02-26T11:58:35;3.87;;;2.80;;
69795;SDS011;57073;45.650;9.612;2024-02-26T12:03:35;4.73;;;2.90;;
69795;SDS011;57073;45.650;9.612;2024-02-26T12:08:36;4.53;;;2.70;;
69795;SDS011;57073;45.650;9.612;2024-02-26T12:13:38;4.95;;;2.58;;
69795;SDS011;57073;45.650;9.612;2024-02-26T12:18:39;5.40;;;2.93;;
69795;SDS011;57073;45.650;9.612;2024-02-26T12:23:41;6.15;;;3.10;;
69795;SDS011;57073;45.650;9.612;2024-02-26T12:28:41;4.23;;;2.50;;
69795;SDS011;57073;45.650;9.612;2024-02-26T12:33:41;5.80;;;2.20;;
69795;SDS011;57073;45.650;9.612;2024-02-26T12:38:42;5.43;;;2.63;;
69795;SDS011;57073;45.650;9.612;2024-02-26T12:43:42;4.93;;;3.17;;
69795;SDS011;57073;45.650;9.612;2024-02-26T12:48:43;5.72;;;3.05;;
69795;SDS011;57073;45.650;9.612;2024-02-26T12:53:46;5.07;;;2.97;;
69795;SDS011;57073;45.650;9.612;2024-02-26T12:58:50;4.35;;;2.47;;
69795;SDS011;57073;45.650;9.612;2024-02-26T13:03:51;4.57;;;2.37;;
69795;SDS011;57073;45.650;9.612;2024-02-26T13:08:56;2.63;;;1.20;;
69795;SDS011;57073;45.650;9.612;2024-02-26T13:14:01;2.47;;;0.90;;
69795;SDS011;57073;45.650;9.612;2024-02-26T13:19:08;1.60;;;0.90;;
69795;SDS011;57073;45.650;9.612;2024-02-26T13:24:12;1.85;;;0.98;;
69795;SDS011;57073;45.650;9.612;2024-02-26T13:29:19;2.35;;;1.25;;
69795;SDS011;57073;45.650;9.612;2024-02-26T13:34:23;2.20;;;1.20;;
69795;SDS011;57073;45.650;9.612;2024-02-26T13:39:27;4.35;;;1.50;;
69795;SDS011;57073;45.650;9.612;2024-02-26T13:44:28;1.92;;;1.27;;
69795;SDS011;57073;45.650;9.612;2024-02-26T13:49:28;9.17;;;3.87;;
69795;SDS011;57073;45.650;9.612;2024-02-26T13:54:28;2.77;;;1.80;;
69795;SDS011;57073;45.650;9.612;2024-02-26T13:59:29;6.33;;;1.50;;
69795;SDS011;57073;45.650;9.612;2024-02-26T14:04:29;9.57;;;3.23;;
69795;SDS011;57073;45.650;9.612;2024-02-26T14:09:29;7.47;;;2.90;;
69795;SDS011;57073;45.650;9.612;2024-02-26T14:14:30;5.03;;;1.83;;
69795;SDS011;57073;45.650;9.612;2024-02-26T14:19:32;3.05;;;1.30;;
69795;SDS011;57073;45.650;9.612;2024-02-26T14:24:33;3.63;;;1.77;;
69795;SDS011;57073;45.650;9.612;2024-02-26T14:29:34;4.03;;;2.00;;
69795;SDS011;57073;45.650;9.612;2024-02-26T14:34:34;2.83;;;1.17;;
69795;SDS011;57073;45.650;9.612;2024-02-26T14:39:35;2.67;;;1.80;;
69795;SDS011;57073;45.650;9.612;2024-02-26T14:44:37;2.50;;;1.40;;
69795;SDS011;57073;45.650;9.612;2024-02-26T14:49:37;2.57;;;1.60;;
69795;SDS011;57073;45.650;9.612;2024-02-26T14:54:38;3.07;;;1.60;;
69795;SDS011;57073;45.650;9.612;2024-02-26T14:59:38;3.20;;;1.77;;
69795;SDS011;57073;45.650;9.612;2024-02-26T15:04:39;4.03;;;1.67;;
69795;SDS011;57073;45.650;9.612;2024-02-26T15:09:39;3.23;;;1.83;;
69795;SDS011;57073;45.650;9.612;2024-02-26T15:14:40;4.83;;;1.90;;
69795;SDS011;57073;45.650;9.612;2024-02-26T15:19:40;4.63;;;1.97;;
69795;SDS011;57073;45.650;9.612;2024-02-26T15:24:43;3.37;;;1.73;;
69795;SDS011;57073;45.650;9.612;2024-02-26T15:29:44;3.92;;;1.73;;
69795;SDS011;57073;45.650;9.612;2024-02-26T15:34:44;3.77;;;1.60;;
69795;SDS011;57073;45.650;9.612;2024-02-26T15:39:45;3.67;;;2.03;;
69795;SDS011;57073;45.650;9.612;2024-02-26T15:44:45;3.53;;;1.87;;
69795;SDS011;57073;45.650;9.612;2024-02-26T15:49:46;3.73;;;2.00;;
69795;SDS011;57073;45.650;9.612;2024-02-26T15:54:47;5.82;;;2.40;;
69795;SDS011;57073;45.650;9.612;2024-02-26T15:59:47;3.97;;;2.40;;
69795;SDS011;57073;45.650;9.612;2024-02-26T16:04:49;3.22;;;1.98;;
69795;SDS011;57073;45.650;9.612;2024-02-26T16:09:50;3.67;;;2.10;;
69795;SDS011;57073;45.650;9.612;2024-02-26T16:14:52;4.20;;;2.13;;
69795;SDS011;57073;45.650;9.612;2024-02-26T16:19:53;3.70;;;1.80;;
69795;SDS011;57073;45.650;9.612;2024-02-26T16:24:53;3.77;;;1.97;;
69795;SDS011;57073;45.650;9.612;2024-02-26T16:29:53;3.67;;;2.30;;
69795;SDS011;57073;45.650;9.612;2024-02-26T16:34:54;3.33;;;2.20;;
69795;SDS011;57073;45.650;9.612;2024-02-26T16:39:54;4.27;;;2.20;;
69795;SDS011;57073;45.650;9.612;2024-02-26T16:44:58;5.07;;;2.70;;
69795;SDS011;57073;45.650;9.612;2024-02-26T16:49:59;5.95;;;2.70;;
69795;SDS011;57073;45.650;9.612;2024-02-26T16:55:00;4.57;;;2.43;;
69795;SDS011;57073;45.650;9.612;2024-02-26T17:00:00;5.20;;;2.70;;
69795;SDS011;57073;45.650;9.612;2024-02-26T17:05:01;3.83;;;2.20;;
69795;SDS011;57073;45.650;9.612;2024-02-26T17:10:03;3.17;;;1.83;;
69795;SDS011;57073;45.650;9.612;2024-02-26T17:15:03;4.13;;;2.28;;
69795;SDS011;57073;45.650;9.612;2024-02-26T17:20:04;5.53;;;2.53;;
69795;SDS011;57073;45.650;9.612;2024-02-26T17:25:05;2.80;;;1.70;;
69795;SDS011;57073;45.650;9.612;2024-02-26T17:30:06;2.47;;;1.57;;
69795;SDS011;57073;45.650;9.612;2024-02-26T17:35:07;3.13;;;1.85;;
69795;SDS011;57073;45.650;9.612;2024-02-26T17:40:11;3.67;;;1.60;;
69795;SDS011;57073;45.650;9.612;2024-02-26T17:45:12;2.40;;;1.63;;
69795;SDS011;57073;45.650;9.612;2024-02-26T17:50:12;3.20;;;1.97;;
69795;SDS011;57073;45.650;9.612;2024-02-26T17:55:13;3.13;;;2.07;;
69795;SDS011;57073;45.650;9.612;2024-02-26T18:00:13;3.20;;;1.73;;
69795;SDS011;57073;45.650;9.612;2024-02-26T18:05:14;3.28;;;1.52;;
69795;SDS011;57073;45.650;9.612;2024-02-26T18:10:15;3.70;;;2.47;;
69795;SDS011;57073;45.650;9.612;2024-02-26T18:15:15;4.83;;;2.70;;
69795;SDS011;57073;45.650;9.612;2024-02-26T18:20:16;5.30;;;3.23;;
69795;SDS011;57073;45.650;9.612;2024-02-26T18:25:16;7.90;;;3.70;;
69795;SDS011;57073;45.650;9.612;2024-02-26T18:30:17;8.13;;;4.38;;
69795;SDS011;57073;45.650;9.612;2024-02-26T18:35:20;7.57;;;4.50;;
69795;SDS011;57073;45.650;9.612;2024-02-26T18:40:20;6.63;;;4.13;;
69795;SDS011;57073;45.650;9.612;2024-02-26T18:45:21;5.97;;;3.70;;
69795;SDS011;57073;45.650;9.612;2024-02-26T18:50:21;8.50;;;4.33;;
69795;SDS011;57073;45.650;9.612;2024-02-26T18:55:22;7.97;;;4.35;;
69795;SDS011;57073;45.650;9.612;2024-02-26T19:00:22;6.93;;;5.23;;
69795;SDS011;57073;45.650;9.612;2024-02-26T19:05:23;7.57;;;4.40;;
69795;SDS011;57073;45.650;9.612;2024-02-26T19:10:25;7.00;;;4.37;;
69795;SDS011;57073;45.650;9.612;2024-02-26T19:15:26;8.05;;;4.22;;
69795;SDS011;57073;45.650;9.612;2024-02-26T19:20:27;8.53;;;5.00;;
69795;SDS011;57073;45.650;9.612;2024-02-26T19:25:29;6.57;;;4.70;;
69795;SDS011;57073;45.650;9.612;2024-02-26T19:30:29;8.33;;;5.10;;
69795;SDS011;57073;45.650;9.612;2024-02-26T19:35:29;9.57;;;5.87;;
69795;SDS011;57073;45.650;9.612;2024-02-26T19:40:30;9.53;;;5.90;;
69795;SDS011;57073;45.650;9.612;2024-02-26T19:45:30;7.90;;;5.80;;
69795;SDS011;57073;45.650;9.612;2024-02-26T19:50:31;7.57;;;5.83;;
69795;SDS011;57073;45.650;9.612;2024-02-26T19:55:31;6.28;;;3.85;;
69795;SDS011;57073;45.650;9.612;2024-02-26T20:00:33;4.47;;;3.10;;
69795;SDS011;57073;45.650;9.612;2024-02-26T20:05:34;5.83;;;4.00;;
69795;SDS011;57073;45.650;9.612;2024-02-26T20:10:36;7.47;;;4.35;;
69795;SDS011;57073;45.650;9.612;2024-02-26T20:15:37;9.83;;;5.30;;
69795;SDS011;57073;45.650;9.612;2024-02-26T20:20:38;9.85;;;6.10;;
69795;SDS011;57073;45.650;9.612;2024-02-26T20:25:38;9.17;;;6.07;;
69795;SDS011;57073;45.650;9.612;2024-02-26T20:30:39;11.43;;;7.00;;
69795;SDS011;57073;45.650;9.612;2024-02-26T20:35:39;9.60;;;5.80;;
69795;SDS011;57073;45.650;9.612;2024-02-26T20:40:40;6.43;;;4.60;;
69795;SDS011;57073;45.650;9.612;2024-02-26T20:45:41;5.93;;;3.53;;
69795;SDS011;57073;45.650;9.612;2024-02-26T20:50:43;5.03;;;2.72;;
69795;SDS011;57073;45.650;9.612;2024-02-26T20:55:44;5.07;;;2.90;;
69795;SDS011;57073;45.650;9.612;2024-02-26T21:00:45;4.03;;;2.20;;
69795;SDS011;57073;45.650;9.612;2024-02-26T21:05:46;4.18;;;2.60;;
69795;SDS011;57073;45.650;9.612;2024-02-26T21:10:47;4.87;;;2.50;;
69795;SDS011;57073;45.650;9.612;2024-02-26T21:15:49;5.10;;;2.83;;
69795;SDS011;57073;45.650;9.612;2024-02-26T21:20:49;5.20;;;2.57;;
69795;SDS011;57073;45.650;9.612;2024-02-26T21:25:49;6.23;;;2.73;;
69795;SDS011;57073;45.650;9.612;2024-02-26T21:30:50;4.53;;;2.73;;
69795;SDS011;57073;45.650;9.612;2024-02-26T21:35:54;4.75;;;3.00;;
69795;SDS011;57073;45.650;9.612;2024-02-26T21:40:56;4.63;;;2.50;;
69795;SDS011;57073;45.650;9.612;2024-02-26T21:45:57;4.03;;;2.50;;
69795;SDS011;57073;45.650;9.612;2024-02-26T21:50:57;5.00;;;3.00;;
69795;SDS011;57073;45.650;9.612;2024-02-26T21:55:59;4.80;;;2.80;;
69795;SDS011;57073;45.650;9.612;2024-02-26T22:00:59;5.53;;;2.93;;
69795;SDS011;57073;45.650;9.612;2024-02-26T22:06:00;4.87;;;2.93;;
69795;SDS011;57073;45.650;9.612;2024-02-26T22:11:00;6.43;;;3.03;;
69795;SDS011;57073;45.650;9.612;2024-02-26T22:16:01;4.80;;;3.13;;
69795;SDS011;57073;45.650;9.612;2024-02-26T22:21:01;6.00;;;3.27;;
69795;SDS011;57073;45.650;9.612;2024-02-26T22:26:03;6.60;;;3.17;;
69795;SDS011;57073;45.650;9.612;2024-02-26T22:31:03;6.75;;;2.92;;
69795;SDS011;57073;45.650;9.612;2024-02-26T22:36:04;5.77;;;2.63;;
69795;SDS011;57073;45.650;9.612;2024-02-26T22:41:05;4.32;;;2.60;;
69795;SDS011;57073;45.650;9.612;2024-02-26T22:46:05;4.28;;;1.98;;
69795;SDS011;57073;45.650;9.612;2024-02-26T22:51:06;3.80;;;2.20;;
69795;SDS011;57073;45.650;9.612;2024-02-26T22:56:06;3.90;;;2.00;;
69795;SDS011;57073;45.650;9.612;2024-02-26T23:01:07;2.80;;;1.70;;
69795;SDS011;57073;45.650;9.612;2024-02-26T23:06:08;3.88;;;1.55;;
69795;SDS011;57073;45.650;9.612;2024-02-26T23:11:09;2.17;;;1.02;;
69795;SDS011;57073;45.650;9.612;2024-02-26T23:16:09;1.70;;;0.90;;
69795;SDS011;57073;45.650;9.612;2024-02-26T23:21:10;1.37;;;0.70;;
69795;SDS011;57073;45.650;9.612;2024-02-26T23:26:10;3.63;;;1.20;;
69795;SDS011;57073;45.650;9.612;2024-02-26T23:31:10;1.87;;;1.20;;
69795;SDS011;57073;45.650;9.612;2024-02-26T23:36:11;4.20;;;1.50;;
69795;SDS011;57073;45.650;9.612;2024-02-26T23:41:13;2.80;;;1.40;;
69795;SDS011;57073;45.650;9.612;2024-02-26T23:46:14;3.20;;;1.57;;
69795;SDS011;57073;45.650;9.612;2024-02-26T23:51:14;2.80;;;1.57;;
69795;SDS011;57073;45.650;9.612;2024-02-26T23:56:15;2.80;;;1.10;;
